Terminal Aerodrome Forecast
Issued by NWS

Current Version | Previous Version | Text Only | Print | Product List | Glossary On
Versions: 1 2 3 4 5 6 7 8 9 10 11 12 13 14 15 16
209
FTUS44 KBMX 141138
TAFMGM
TAF
KMGM 141138Z 1412/1512 09006KT P6SM SCT250
     FM141400 10008KT P6SM BKN060
     FM141800 14009KT P6SM SCT060
     FM150000 13004KT P6SM SCT060 BKN250=

USA.gov is the U.S. government's official web portal to all federal, state and local government web resources and services.